sensor_id;sensor_type;location;lat;lon;timestamp;temperature;humidity
4425;DHT22;2225;53.568;13.266;2023-01-15T00:02:08;12.50;98.30
4425;DHT22;2225;53.568;13.266;2023-01-15T00:04:35;12.50;98.30
4425;DHT22;2225;53.568;13.266;2023-01-15T00:07:02;12.50;98.20
4425;DHT22;2225;53.568;13.266;2023-01-15T00:09:29;12.50;98.20
4425;DHT22;2225;53.568;13.266;2023-01-15T00:11:56;12.50;98.30
4425;DHT22;2225;53.568;13.266;2023-01-15T00:14:23;12.50;98.30
4425;DHT22;2225;53.568;13.266;2023-01-15T00:16:51;12.50;98.30
4425;DHT22;2225;53.568;13.266;2023-01-15T00:19:18;12.50;98.30
4425;DHT22;2225;53.568;13.266;2023-01-15T00:21:45;12.50;98.20
4425;DHT22;2225;53.568;13.266;2023-01-15T00:24:12;12.60;98.20
4425;DHT22;2225;53.568;13.266;2023-01-15T00:27:14;12.60;98.20
4425;DHT22;2225;53.568;13.266;2023-01-15T00:30:00;12.60;98.10
4425;DHT22;2225;53.568;13.266;2023-01-15T00:32:27;12.60;98.10
4425;DHT22;2225;53.568;13.266;2023-01-15T00:34:57;12.60;98.10
4425;DHT22;2225;53.568;13.266;2023-01-15T00:37:24;12.60;98.20
4425;DHT22;2225;53.568;13.266;2023-01-15T00:39:51;12.60;98.20
4425;DHT22;2225;53.568;13.266;2023-01-15T00:42:18;12.60;98.10
4425;DHT22;2225;53.568;13.266;2023-01-15T00:44:46;12.60;98.10
4425;DHT22;2225;53.568;13.266;2023-01-15T00:47:13;12.60;98.10
4425;DHT22;2225;53.568;13.266;2023-01-15T00:49:41;12.60;98.10
4425;DHT22;2225;53.568;13.266;2023-01-15T00:52:09;12.60;98.10
4425;DHT22;2225;53.568;13.266;2023-01-15T00:54:36;12.60;98.10
4425;DHT22;2225;53.568;13.266;2023-01-15T00:57:03;12.60;98.00
4425;DHT22;2225;53.568;13.266;2023-01-15T00:59:30;12.60;98.00
4425;DHT22;2225;53.568;13.266;2023-01-15T01:01:57;12.60;98.00
4425;DHT22;2225;53.568;13.266;2023-01-15T01:04:24;12.60;98.10
4425;DHT22;2225;53.568;13.266;2023-01-15T01:06:51;12.60;98.10
4425;DHT22;2225;53.568;13.266;2023-01-15T01:09:18;12.60;98.10
4425;DHT22;2225;53.568;13.266;2023-01-15T01:11:45;12.60;98.10
4425;DHT22;2225;53.568;13.266;2023-01-15T01:14:12;12.60;98.10
4425;DHT22;2225;53.568;13.266;2023-01-15T01:16:40;12.60;98.10
4425;DHT22;2225;53.568;13.266;2023-01-15T01:19:11;12.60;98.00
4425;DHT22;2225;53.568;13.266;2023-01-15T01:21:40;12.70;98.00
4425;DHT22;2225;53.568;13.266;2023-01-15T01:24:11;12.70;98.00
4425;DHT22;2225;53.568;13.266;2023-01-15T01:26:40;12.70;98.00
4425;DHT22;2225;53.568;13.266;2023-01-15T01:29:20;12.70;98.00
4425;DHT22;2225;53.568;13.266;2023-01-15T01:31:48;12.70;98.10
4425;DHT22;2225;53.568;13.266;2023-01-15T01:34:17;12.70;98.00
4425;DHT22;2225;53.568;13.266;2023-01-15T01:36:44;12.80;98.10
4425;DHT22;2225;53.568;13.266;2023-01-15T01:39:14;12.80;98.00
4425;DHT22;2225;53.568;13.266;2023-01-15T01:41:43;12.80;98.00
4425;DHT22;2225;53.568;13.266;2023-01-15T01:47:00;12.90;97.90
4425;DHT22;2225;53.568;13.266;2023-01-15T01:49:30;12.90;97.90
4425;DHT22;2225;53.568;13.266;2023-01-15T01:52:07;12.90;97.80
4425;DHT22;2225;53.568;13.266;2023-01-15T01:54:37;12.90;97.80
4425;DHT22;2225;53.568;13.266;2023-01-15T01:57:05;12.90;97.80
4425;DHT22;2225;53.568;13.266;2023-01-15T01:59:34;12.90;97.90
4425;DHT22;2225;53.568;13.266;2023-01-15T02:02:02;12.90;97.90
4425;DHT22;2225;53.568;13.266;2023-01-15T02:04:30;12.90;98.00
4425;DHT22;2225;53.568;13.266;2023-01-15T02:06:59;12.90;98.10
4425;DHT22;2225;53.568;13.266;2023-01-15T02:09:26;12.90;97.80
4425;DHT22;2225;53.568;13.266;2023-01-15T02:11:56;12.80;97.30
4425;DHT22;2225;53.568;13.266;2023-01-15T02:14:38;12.80;97.00
4425;DHT22;2225;53.568;13.266;2023-01-15T02:18:04;12.70;97.00
4425;DHT22;2225;53.568;13.266;2023-01-15T02:23:31;12.60;96.80
4425;DHT22;2225;53.568;13.266;2023-01-15T02:28:57;12.40;96.90
4425;DHT22;2225;53.568;13.266;2023-01-15T02:31:35;12.30;96.80
4425;DHT22;2225;53.568;13.266;2023-01-15T02:34:16;12.30;96.90
4425;DHT22;2225;53.568;13.266;2023-01-15T02:36:51;12.20;97.00
4425;DHT22;2225;53.568;13.266;2023-01-15T02:39:25;12.10;97.10
4425;DHT22;2225;53.568;13.266;2023-01-15T02:41:58;12.10;97.10
4425;DHT22;2225;53.568;13.266;2023-01-15T02:44:33;12.00;97.10
4425;DHT22;2225;53.568;13.266;2023-01-15T02:47:03;12.00;97.10
4425;DHT22;2225;53.568;13.266;2023-01-15T02:49:33;12.00;97.10
4425;DHT22;2225;53.568;13.266;2023-01-15T02:52:14;11.90;97.00
4425;DHT22;2225;53.568;13.266;2023-01-15T02:54:51;11.90;96.90
4425;DHT22;2225;53.568;13.266;2023-01-15T02:57:21;11.90;96.80
4425;DHT22;2225;53.568;13.266;2023-01-15T02:59:56;11.80;96.70
4425;DHT22;2225;53.568;13.266;2023-01-15T03:02:28;11.80;96.70
4425;DHT22;2225;53.568;13.266;2023-01-15T03:05:04;11.80;97.00
4425;DHT22;2225;53.568;13.266;2023-01-15T03:07:39;11.70;96.10
4425;DHT22;2225;53.568;13.266;2023-01-15T03:10:10;11.60;95.60
4425;DHT22;2225;53.568;13.266;2023-01-15T03:12:45;11.50;95.80
4425;DHT22;2225;53.568;13.266;2023-01-15T03:18:51;11.30;94.30
4425;DHT22;2225;53.568;13.266;2023-01-15T03:21:30;11.20;94.30
4425;DHT22;2225;53.568;13.266;2023-01-15T03:24:32;11.10;94.00
4425;DHT22;2225;53.568;13.266;2023-01-15T03:27:02;11.00;94.50
4425;DHT22;2225;53.568;13.266;2023-01-15T03:29:32;11.00;94.40
4425;DHT22;2225;53.568;13.266;2023-01-15T03:32:02;11.00;94.60
4425;DHT22;2225;53.568;13.266;2023-01-15T03:34:37;10.90;94.70
4425;DHT22;2225;53.568;13.266;2023-01-15T03:37:09;11.00;94.80
4425;DHT22;2225;53.568;13.266;2023-01-15T03:39:37;10.90;95.00
4425;DHT22;2225;53.568;13.266;2023-01-15T03:48:19;10.80;95.20
4425;DHT22;2225;53.568;13.266;2023-01-15T03:51:11;10.80;95.10
4425;DHT22;2225;53.568;13.266;2023-01-15T03:53:50;10.80;95.00
4425;DHT22;2225;53.568;13.266;2023-01-15T03:56:32;10.80;95.00
4425;DHT22;2225;53.568;13.266;2023-01-15T03:59:09;10.80;94.90
4425;DHT22;2225;53.568;13.266;2023-01-15T04:02:02;10.80;94.10
4425;DHT22;2225;53.568;13.266;2023-01-15T04:04:33;10.80;94.50
4425;DHT22;2225;53.568;13.266;2023-01-15T04:07:02;10.80;94.50
4425;DHT22;2225;53.568;13.266;2023-01-15T04:09:35;10.80;94.30
4425;DHT22;2225;53.568;13.266;2023-01-15T04:12:03;10.80;94.20
4425;DHT22;2225;53.568;13.266;2023-01-15T04:14:36;10.80;94.00
4425;DHT22;2225;53.568;13.266;2023-01-15T04:17:07;10.70;93.80
4425;DHT22;2225;53.568;13.266;2023-01-15T04:19:34;10.70;94.00
4425;DHT22;2225;53.568;13.266;2023-01-15T04:22:08;10.70;94.20
4425;DHT22;2225;53.568;13.266;2023-01-15T04:24:37;10.80;94.10
4425;DHT22;2225;53.568;13.266;2023-01-15T04:27:04;10.70;93.80
4425;DHT22;2225;53.568;13.266;2023-01-15T04:29:31;10.80;93.70
4425;DHT22;2225;53.568;13.266;2023-01-15T04:31:58;10.70;93.70
4425;DHT22;2225;53.568;13.266;2023-01-15T04:34:26;10.70;93.80
4425;DHT22;2225;53.568;13.266;2023-01-15T04:36:54;10.70;93.50
4425;DHT22;2225;53.568;13.266;2023-01-15T04:39:22;10.80;93.40
4425;DHT22;2225;53.568;13.266;2023-01-15T04:41:49;10.80;93.40
4425;DHT22;2225;53.568;13.266;2023-01-15T04:44:35;10.80;93.40
4425;DHT22;2225;53.568;13.266;2023-01-15T04:47:03;10.80;92.40
4425;DHT22;2225;53.568;13.266;2023-01-15T04:49:30;10.80;92.20
4425;DHT22;2225;53.568;13.266;2023-01-15T04:51:56;10.80;91.70
4425;DHT22;2225;53.568;13.266;2023-01-15T04:54:23;10.70;91.70
4425;DHT22;2225;53.568;13.266;2023-01-15T04:56:52;10.80;91.70
4425;DHT22;2225;53.568;13.266;2023-01-15T04:59:22;10.80;91.70
4425;DHT22;2225;53.568;13.266;2023-01-15T05:01:51;10.80;90.80
4425;DHT22;2225;53.568;13.266;2023-01-15T05:04:30;10.80;90.40
4425;DHT22;2225;53.568;13.266;2023-01-15T05:06:57;10.70;90.50
4425;DHT22;2225;53.568;13.266;2023-01-15T05:09:24;10.80;90.40
4425;DHT22;2225;53.568;13.266;2023-01-15T05:11:51;10.80;90.50
4425;DHT22;2225;53.568;13.266;2023-01-15T05:14:18;10.80;90.20
4425;DHT22;2225;53.568;13.266;2023-01-15T05:16:45;10.80;90.60
4425;DHT22;2225;53.568;13.266;2023-01-15T05:19:11;10.80;90.40
4425;DHT22;2225;53.568;13.266;2023-01-15T05:21:43;10.90;90.30
4425;DHT22;2225;53.568;13.266;2023-01-15T05:24:16;10.90;90.10
4425;DHT22;2225;53.568;13.266;2023-01-15T05:26:44;10.90;90.00
4425;DHT22;2225;53.568;13.266;2023-01-15T05:29:12;10.90;90.10
4425;DHT22;2225;53.568;13.266;2023-01-15T05:31:39;10.90;90.10
4425;DHT22;2225;53.568;13.266;2023-01-15T05:34:08;10.90;90.10
4425;DHT22;2225;53.568;13.266;2023-01-15T05:36:35;10.90;90.00
4425;DHT22;2225;53.568;13.266;2023-01-15T05:39:03;10.80;90.00
4425;DHT22;2225;53.568;13.266;2023-01-15T05:41:30;10.80;90.20
4425;DHT22;2225;53.568;13.266;2023-01-15T05:44:22;10.80;90.00
4425;DHT22;2225;53.568;13.266;2023-01-15T05:46:52;10.80;90.20
4425;DHT22;2225;53.568;13.266;2023-01-15T05:49:22;10.80;90.20
4425;DHT22;2225;53.568;13.266;2023-01-15T05:51:52;10.80;90.20
4425;DHT22;2225;53.568;13.266;2023-01-15T05:54:23;10.80;90.30
4425;DHT22;2225;53.568;13.266;2023-01-15T05:56:52;10.80;90.50
4425;DHT22;2225;53.568;13.266;2023-01-15T05:59:23;10.90;90.50
4425;DHT22;2225;53.568;13.266;2023-01-15T06:01:51;10.90;90.40
4425;DHT22;2225;53.568;13.266;2023-01-15T06:04:19;10.90;90.60
4425;DHT22;2225;53.568;13.266;2023-01-15T06:06:52;10.90;90.80
4425;DHT22;2225;53.568;13.266;2023-01-15T06:09:20;10.90;91.00
4425;DHT22;2225;53.568;13.266;2023-01-15T06:11:49;10.90;91.10
4425;DHT22;2225;53.568;13.266;2023-01-15T06:14:16;10.90;91.10
4425;DHT22;2225;53.568;13.266;2023-01-15T06:16:43;10.90;91.20
4425;DHT22;2225;53.568;13.266;2023-01-15T06:19:12;10.90;91.30
4425;DHT22;2225;53.568;13.266;2023-01-15T06:21:40;10.90;91.30
4425;DHT22;2225;53.568;13.266;2023-01-15T06:24:07;10.90;91.30
4425;DHT22;2225;53.568;13.266;2023-01-15T06:26:34;10.90;91.40
4425;DHT22;2225;53.568;13.266;2023-01-15T06:29:01;10.90;91.30
4425;DHT22;2225;53.568;13.266;2023-01-15T06:31:28;10.80;91.20
4425;DHT22;2225;53.568;13.266;2023-01-15T06:33:55;10.80;91.40
4425;DHT22;2225;53.568;13.266;2023-01-15T06:36:24;10.70;91.40
4425;DHT22;2225;53.568;13.266;2023-01-15T06:38:52;10.70;91.60
4425;DHT22;2225;53.568;13.266;2023-01-15T06:41:21;10.70;91.70
4425;DHT22;2225;53.568;13.266;2023-01-15T06:44:13;10.70;91.80
4425;DHT22;2225;53.568;13.266;2023-01-15T06:47:02;10.70;91.90
4425;DHT22;2225;53.568;13.266;2023-01-15T06:49:48;10.60;92.00
4425;DHT22;2225;53.568;13.266;2023-01-15T06:52:16;10.60;92.10
4425;DHT22;2225;53.568;13.266;2023-01-15T06:54:43;10.50;92.10
4425;DHT22;2225;53.568;13.266;2023-01-15T06:57:10;10.50;92.20
4425;DHT22;2225;53.568;13.266;2023-01-15T06:59:37;10.50;92.30
4425;DHT22;2225;53.568;13.266;2023-01-15T07:02:04;10.50;92.40
4425;DHT22;2225;53.568;13.266;2023-01-15T07:04:31;10.50;92.40
4425;DHT22;2225;53.568;13.266;2023-01-15T07:06:58;10.40;92.50
4425;DHT22;2225;53.568;13.266;2023-01-15T07:09:25;10.40;92.50
4425;DHT22;2225;53.568;13.266;2023-01-15T07:11:52;10.30;92.60
4425;DHT22;2225;53.568;13.266;2023-01-15T07:14:21;10.30;92.70
4425;DHT22;2225;53.568;13.266;2023-01-15T07:16:50;10.30;92.80
4425;DHT22;2225;53.568;13.266;2023-01-15T07:19:17;10.30;92.90
4425;DHT22;2225;53.568;13.266;2023-01-15T07:21:45;10.20;93.00
4425;DHT22;2225;53.568;13.266;2023-01-15T07:24:12;10.30;93.10
4425;DHT22;2225;53.568;13.266;2023-01-15T07:26:40;10.20;93.10
4425;DHT22;2225;53.568;13.266;2023-01-15T07:29:08;10.20;93.20
4425;DHT22;2225;53.568;13.266;2023-01-15T07:31:35;10.20;93.20
4425;DHT22;2225;53.568;13.266;2023-01-15T07:34:03;10.10;93.30
4425;DHT22;2225;53.568;13.266;2023-01-15T07:36:30;10.20;93.40
4425;DHT22;2225;53.568;13.266;2023-01-15T07:38:57;10.10;93.30
4425;DHT22;2225;53.568;13.266;2023-01-15T07:41:24;10.10;93.40
4425;DHT22;2225;53.568;13.266;2023-01-15T07:44:10;10.10;93.50
4425;DHT22;2225;53.568;13.266;2023-01-15T07:46:56;10.10;93.50
4425;DHT22;2225;53.568;13.266;2023-01-15T07:49:42;10.10;93.50
4425;DHT22;2225;53.568;13.266;2023-01-15T07:52:20;10.10;93.60
4425;DHT22;2225;53.568;13.266;2023-01-15T07:54:48;10.10;93.70
4425;DHT22;2225;53.568;13.266;2023-01-15T07:57:19;10.00;93.60
4425;DHT22;2225;53.568;13.266;2023-01-15T07:59:48;10.00;93.60
4425;DHT22;2225;53.568;13.266;2023-01-15T08:02:15;10.10;93.60
4425;DHT22;2225;53.568;13.266;2023-01-15T08:04:43;10.10;93.60
4425;DHT22;2225;53.568;13.266;2023-01-15T08:07:10;10.00;93.50
4425;DHT22;2225;53.568;13.266;2023-01-15T08:09:38;10.00;93.70
4425;DHT22;2225;53.568;13.266;2023-01-15T08:12:05;10.00;93.70
4425;DHT22;2225;53.568;13.266;2023-01-15T08:14:51;10.00;93.70
4425;DHT22;2225;53.568;13.266;2023-01-15T08:17:36;10.00;93.70
4425;DHT22;2225;53.568;13.266;2023-01-15T08:20:05;10.00;93.70
4425;DHT22;2225;53.568;13.266;2023-01-15T08:22:44;10.10;93.80
4425;DHT22;2225;53.568;13.266;2023-01-15T08:25:14;10.00;93.80
4425;DHT22;2225;53.568;13.266;2023-01-15T08:27:43;10.00;93.80
4425;DHT22;2225;53.568;13.266;2023-01-15T08:30:13;10.10;93.80
4425;DHT22;2225;53.568;13.266;2023-01-15T08:32:41;10.00;93.80
4425;DHT22;2225;53.568;13.266;2023-01-15T08:35:08;10.00;93.80
4425;DHT22;2225;53.568;13.266;2023-01-15T08:37:35;10.00;93.90
4425;DHT22;2225;53.568;13.266;2023-01-15T08:40:03;10.10;93.90
4425;DHT22;2225;53.568;13.266;2023-01-15T08:42:30;10.10;93.90
4425;DHT22;2225;53.568;13.266;2023-01-15T08:44:57;10.10;93.90
4425;DHT22;2225;53.568;13.266;2023-01-15T08:47:25;10.10;93.90
4425;DHT22;2225;53.568;13.266;2023-01-15T08:49:52;10.10;93.90
4425;DHT22;2225;53.568;13.266;2023-01-15T08:52:19;10.10;93.90
4425;DHT22;2225;53.568;13.266;2023-01-15T08:54:46;10.20;94.30
4425;DHT22;2225;53.568;13.266;2023-01-15T08:57:12;10.20;94.00
4425;DHT22;2225;53.568;13.266;2023-01-15T08:59:39;10.20;94.00
4425;DHT22;2225;53.568;13.266;2023-01-15T09:02:11;10.30;94.10
4425;DHT22;2225;53.568;13.266;2023-01-15T09:04:40;10.30;94.00
4425;DHT22;2225;53.568;13.266;2023-01-15T09:07:07;10.30;93.90
4425;DHT22;2225;53.568;13.266;2023-01-15T09:09:34;10.30;93.90
4425;DHT22;2225;53.568;13.266;2023-01-15T09:12:01;10.30;94.00
4425;DHT22;2225;53.568;13.266;2023-01-15T09:14:28;10.40;94.30
4425;DHT22;2225;53.568;13.266;2023-01-15T09:17:15;10.40;93.90
4425;DHT22;2225;53.568;13.266;2023-01-15T09:19:42;10.50;93.90
4425;DHT22;2225;53.568;13.266;2023-01-15T09:22:09;10.50;93.80
4425;DHT22;2225;53.568;13.266;2023-01-15T09:24:36;10.50;93.90
4425;DHT22;2225;53.568;13.266;2023-01-15T09:27:02;10.50;93.90
4425;DHT22;2225;53.568;13.266;2023-01-15T09:29:29;10.60;93.80
4425;DHT22;2225;53.568;13.266;2023-01-15T09:31:56;10.60;93.80
4425;DHT22;2225;53.568;13.266;2023-01-15T09:34:23;10.70;93.70
4425;DHT22;2225;53.568;13.266;2023-01-15T09:36:50;10.70;93.70
4425;DHT22;2225;53.568;13.266;2023-01-15T09:39:17;10.70;93.50
4425;DHT22;2225;53.568;13.266;2023-01-15T09:41:53;10.80;93.50
4425;DHT22;2225;53.568;13.266;2023-01-15T09:44:39;10.80;93.20
4425;DHT22;2225;53.568;13.266;2023-01-15T09:47:12;10.80;93.30
4425;DHT22;2225;53.568;13.266;2023-01-15T09:49:59;10.80;93.30
4425;DHT22;2225;53.568;13.266;2023-01-15T09:55:25;10.80;93.10
4425;DHT22;2225;53.568;13.266;2023-01-15T09:57:56;10.80;93.10
4425;DHT22;2225;53.568;13.266;2023-01-15T10:00:26;10.80;93.10
4425;DHT22;2225;53.568;13.266;2023-01-15T10:03:12;10.80;93.00
4425;DHT22;2225;53.568;13.266;2023-01-15T10:06:02;10.90;92.80
4425;DHT22;2225;53.568;13.266;2023-01-15T10:08:48;10.80;92.80
4425;DHT22;2225;53.568;13.266;2023-01-15T10:13:48;10.80;92.80
4425;DHT22;2225;53.568;13.266;2023-01-15T10:16:28;10.80;92.80
4425;DHT22;2225;53.568;13.266;2023-01-15T10:18:57;10.90;92.70
4425;DHT22;2225;53.568;13.266;2023-01-15T10:21:44;10.90;92.60
4425;DHT22;2225;53.568;13.266;2023-01-15T10:24:36;10.90;92.50
4425;DHT22;2225;53.568;13.266;2023-01-15T10:27:19;10.90;92.40
4425;DHT22;2225;53.568;13.266;2023-01-15T10:29:57;10.90;92.60
4425;DHT22;2225;53.568;13.266;2023-01-15T10:32:50;10.90;92.50
4425;DHT22;2225;53.568;13.266;2023-01-15T10:36:00;10.90;92.50
4425;DHT22;2225;53.568;13.266;2023-01-15T10:38:43;10.90;92.60
4425;DHT22;2225;53.568;13.266;2023-01-15T10:41:51;10.90;92.30
4425;DHT22;2225;53.568;13.266;2023-01-15T10:44:39;10.90;92.10
4425;DHT22;2225;53.568;13.266;2023-01-15T10:47:33;10.90;92.10
4425;DHT22;2225;53.568;13.266;2023-01-15T10:50:04;10.90;92.20
4425;DHT22;2225;53.568;13.266;2023-01-15T10:52:43;11.00;92.10
4425;DHT22;2225;53.568;13.266;2023-01-15T10:55:46;11.00;91.90
4425;DHT22;2225;53.568;13.266;2023-01-15T10:58:37;11.00;92.00
4425;DHT22;2225;53.568;13.266;2023-01-15T11:01:13;11.00;92.10
4425;DHT22;2225;53.568;13.266;2023-01-15T11:03:42;10.90;91.60
4425;DHT22;2225;53.568;13.266;2023-01-15T11:06:18;10.90;91.80
4425;DHT22;2225;53.568;13.266;2023-01-15T11:08:50;10.90;91.90
4425;DHT22;2225;53.568;13.266;2023-01-15T11:11:45;11.00;91.90
4425;DHT22;2225;53.568;13.266;2023-01-15T11:14:39;11.00;91.90
4425;DHT22;2225;53.568;13.266;2023-01-15T11:17:32;11.10;91.70
4425;DHT22;2225;53.568;13.266;2023-01-15T11:20:28;11.10;91.70
4425;DHT22;2225;53.568;13.266;2023-01-15T11:23:07;11.10;91.00
4425;DHT22;2225;53.568;13.266;2023-01-15T11:25:37;11.10;91.30
4425;DHT22;2225;53.568;13.266;2023-01-15T11:28:06;11.00;91.20
4425;DHT22;2225;53.568;13.266;2023-01-15T11:30:35;11.00;91.20
4425;DHT22;2225;53.568;13.266;2023-01-15T11:33:05;11.00;91.50
4425;DHT22;2225;53.568;13.266;2023-01-15T11:35:54;11.10;91.30
4425;DHT22;2225;53.568;13.266;2023-01-15T11:38:30;11.10;91.20
4425;DHT22;2225;53.568;13.266;2023-01-15T11:41:02;11.10;91.10
4425;DHT22;2225;53.568;13.266;2023-01-15T11:43:30;11.10;90.90
4425;DHT22;2225;53.568;13.266;2023-01-15T11:46:30;11.10;91.00
4425;DHT22;2225;53.568;13.266;2023-01-15T11:49:18;11.10;90.90
4425;DHT22;2225;53.568;13.266;2023-01-15T11:52:11;11.10;91.00
4425;DHT22;2225;53.568;13.266;2023-01-15T11:54:42;11.10;90.80
4425;DHT22;2225;53.568;13.266;2023-01-15T11:57:11;11.10;90.70
4425;DHT22;2225;53.568;13.266;2023-01-15T11:59:49;11.10;90.70
4425;DHT22;2225;53.568;13.266;2023-01-15T12:02:35;11.20;90.60
4425;DHT22;2225;53.568;13.266;2023-01-15T12:05:17;11.20;90.30
4425;DHT22;2225;53.568;13.266;2023-01-15T12:07:48;11.30;90.30
4425;DHT22;2225;53.568;13.266;2023-01-15T12:10:41;11.30;90.10
4425;DHT22;2225;53.568;13.266;2023-01-15T12:17:28;11.20;89.20
4425;DHT22;2225;53.568;13.266;2023-01-15T12:26:32;11.30;89.50
4425;DHT22;2225;53.568;13.266;2023-01-15T12:29:05;11.30;89.70
4425;DHT22;2225;53.568;13.266;2023-01-15T12:31:45;11.30;89.40
4425;DHT22;2225;53.568;13.266;2023-01-15T12:34:23;11.30;90.10
4425;DHT22;2225;53.568;13.266;2023-01-15T12:37:12;11.30;90.10
4425;DHT22;2225;53.568;13.266;2023-01-15T12:42:47;11.30;89.20
4425;DHT22;2225;53.568;13.266;2023-01-15T12:45:38;11.30;89.10
4425;DHT22;2225;53.568;13.266;2023-01-15T12:48:15;11.30;89.60
4425;DHT22;2225;53.568;13.266;2023-01-15T12:50:51;11.30;88.50
4425;DHT22;2225;53.568;13.266;2023-01-15T12:53:46;11.40;89.00
4425;DHT22;2225;53.568;13.266;2023-01-15T12:56:28;11.40;87.80
4425;DHT22;2225;53.568;13.266;2023-01-15T12:59:20;11.40;87.60
4425;DHT22;2225;53.568;13.266;2023-01-15T13:02:02;11.40;87.70
4425;DHT22;2225;53.568;13.266;2023-01-15T13:10:39;11.50;87.80
4425;DHT22;2225;53.568;13.266;2023-01-15T13:13:22;11.60;88.00
4425;DHT22;2225;53.568;13.266;2023-01-15T13:16:19;11.60;87.60
4425;DHT22;2225;53.568;13.266;2023-01-15T13:22:18;11.60;86.40
4425;DHT22;2225;53.568;13.266;2023-01-15T13:25:17;11.60;85.90
4425;DHT22;2225;53.568;13.266;2023-01-15T13:28:18;11.60;85.90
4425;DHT22;2225;53.568;13.266;2023-01-15T13:31:11;11.60;86.00
4425;DHT22;2225;53.568;13.266;2023-01-15T13:34:06;11.60;86.40
4425;DHT22;2225;53.568;13.266;2023-01-15T13:36:42;11.60;85.90
4425;DHT22;2225;53.568;13.266;2023-01-15T13:39:16;11.50;85.50
4425;DHT22;2225;53.568;13.266;2023-01-15T13:41:51;11.40;86.20
4425;DHT22;2225;53.568;13.266;2023-01-15T13:44:50;11.40;86.60
4425;DHT22;2225;53.568;13.266;2023-01-15T13:47:24;11.40;86.60
4425;DHT22;2225;53.568;13.266;2023-01-15T13:50:00;11.30;86.20
4425;DHT22;2225;53.568;13.266;2023-01-15T13:52:32;11.20;86.50
4425;DHT22;2225;53.568;13.266;2023-01-15T13:55:20;11.20;86.80
4425;DHT22;2225;53.568;13.266;2023-01-15T13:57:52;11.10;86.60
4425;DHT22;2225;53.568;13.266;2023-01-15T14:02:55;11.10;86.20
4425;DHT22;2225;53.568;13.266;2023-01-15T14:05:30;11.10;86.40
4425;DHT22;2225;53.568;13.266;2023-01-15T14:07:59;11.10;86.00
4425;DHT22;2225;53.568;13.266;2023-01-15T14:13:08;11.00;84.90
4425;DHT22;2225;53.568;13.266;2023-01-15T14:16:17;11.00;85.10
4425;DHT22;2225;53.568;13.266;2023-01-15T14:21:50;11.00;83.00
4425;DHT22;2225;53.568;13.266;2023-01-15T14:24:53;10.90;82.50
4425;DHT22;2225;53.568;13.266;2023-01-15T14:28:08;10.90;82.70
4425;DHT22;2225;53.568;13.266;2023-01-15T14:31:01;10.90;82.40
4425;DHT22;2225;53.568;13.266;2023-01-15T14:37:01;10.90;81.90
4425;DHT22;2225;53.568;13.266;2023-01-15T14:39:37;10.90;82.20
4425;DHT22;2225;53.568;13.266;2023-01-15T14:42:13;10.90;82.30
4425;DHT22;2225;53.568;13.266;2023-01-15T14:47:50;10.80;82.20
4425;DHT22;2225;53.568;13.266;2023-01-15T14:50:30;10.80;82.50
4425;DHT22;2225;53.568;13.266;2023-01-15T14:55:55;10.80;82.10
4425;DHT22;2225;53.568;13.266;2023-01-15T14:58:52;10.70;82.50
4425;DHT22;2225;53.568;13.266;2023-01-15T15:01:28;10.70;82.30
4425;DHT22;2225;53.568;13.266;2023-01-15T15:06:53;10.70;83.00
4425;DHT22;2225;53.568;13.266;2023-01-15T15:09:38;10.60;82.90
4425;DHT22;2225;53.568;13.266;2023-01-15T15:15:01;10.50;83.30
4425;DHT22;2225;53.568;13.266;2023-01-15T15:17:43;10.50;83.30
4425;DHT22;2225;53.568;13.266;2023-01-15T15:20:20;10.50;83.70
4425;DHT22;2225;53.568;13.266;2023-01-15T15:22:54;10.50;84.10
4425;DHT22;2225;53.568;13.266;2023-01-15T15:25:24;10.50;84.00
4425;DHT22;2225;53.568;13.266;2023-01-15T15:28:08;10.40;84.40
4425;DHT22;2225;53.568;13.266;2023-01-15T15:30:42;10.40;84.40
4425;DHT22;2225;53.568;13.266;2023-01-15T15:33:24;10.40;84.40
4425;DHT22;2225;53.568;13.266;2023-01-15T15:35:57;10.30;84.80
4425;DHT22;2225;53.568;13.266;2023-01-15T15:38:25;10.30;84.70
4425;DHT22;2225;53.568;13.266;2023-01-15T15:40:57;10.30;84.90
4425;DHT22;2225;53.568;13.266;2023-01-15T15:43:42;10.30;85.00
4425;DHT22;2225;53.568;13.266;2023-01-15T15:46:31;10.30;84.80
4425;DHT22;2225;53.568;13.266;2023-01-15T15:49:17;10.30;84.80
4425;DHT22;2225;53.568;13.266;2023-01-15T15:51:48;10.20;84.30
4425;DHT22;2225;53.568;13.266;2023-01-15T15:54:24;10.20;85.00
4425;DHT22;2225;53.568;13.266;2023-01-15T15:59:31;10.30;84.60
4425;DHT22;2225;53.568;13.266;2023-01-15T16:02:23;10.30;84.90
4425;DHT22;2225;53.568;13.266;2023-01-15T16:04:53;10.30;84.60
4425;DHT22;2225;53.568;13.266;2023-01-15T16:07:23;10.30;84.10
4425;DHT22;2225;53.568;13.266;2023-01-15T16:12:44;10.30;83.70
4425;DHT22;2225;53.568;13.266;2023-01-15T16:15:15;10.30;83.30
4425;DHT22;2225;53.568;13.266;2023-01-15T16:17:47;10.30;83.30
4425;DHT22;2225;53.568;13.266;2023-01-15T16:20:17;10.20;82.00
4425;DHT22;2225;53.568;13.266;2023-01-15T16:22:54;10.10;82.10
4425;DHT22;2225;53.568;13.266;2023-01-15T16:25:32;10.10;82.30
4425;DHT22;2225;53.568;13.266;2023-01-15T16:28:00;10.10;82.10
4425;DHT22;2225;53.568;13.266;2023-01-15T16:30:28;10.10;82.20
4425;DHT22;2225;53.568;13.266;2023-01-15T16:33:03;10.10;82.40
4425;DHT22;2225;53.568;13.266;2023-01-15T16:35:33;10.10;82.20
4425;DHT22;2225;53.568;13.266;2023-01-15T16:38:03;10.10;82.60
4425;DHT22;2225;53.568;13.266;2023-01-15T16:40:38;10.10;82.50
4425;DHT22;2225;53.568;13.266;2023-01-15T16:43:12;10.10;83.10
4425;DHT22;2225;53.568;13.266;2023-01-15T16:46:05;10.20;82.70
4425;DHT22;2225;53.568;13.266;2023-01-15T16:48:34;10.20;82.70
4425;DHT22;2225;53.568;13.266;2023-01-15T16:51:30;10.20;82.90
4425;DHT22;2225;53.568;13.266;2023-01-15T16:54:03;10.30;82.80
4425;DHT22;2225;53.568;13.266;2023-01-15T16:59:01;10.30;81.40
4425;DHT22;2225;53.568;13.266;2023-01-15T17:01:43;10.20;81.60
4425;DHT22;2225;53.568;13.266;2023-01-15T17:04:22;10.30;83.10
4425;DHT22;2225;53.568;13.266;2023-01-15T17:06:58;10.30;82.10
4425;DHT22;2225;53.568;13.266;2023-01-15T17:09:30;10.30;82.70
4425;DHT22;2225;53.568;13.266;2023-01-15T17:12:04;10.40;82.40
4425;DHT22;2225;53.568;13.266;2023-01-15T17:14:32;10.30;81.80
4425;DHT22;2225;53.568;13.266;2023-01-15T17:19:49;10.30;82.10
4425;DHT22;2225;53.568;13.266;2023-01-15T17:22:28;10.30;82.50
4425;DHT22;2225;53.568;13.266;2023-01-15T17:24:59;10.30;82.20
4425;DHT22;2225;53.568;13.266;2023-01-15T17:27:28;10.30;82.20
4425;DHT22;2225;53.568;13.266;2023-01-15T17:29:55;10.30;82.30
4425;DHT22;2225;53.568;13.266;2023-01-15T17:32:29;10.30;81.70
4425;DHT22;2225;53.568;13.266;2023-01-15T17:34:57;10.30;82.10
4425;DHT22;2225;53.568;13.266;2023-01-15T17:37:24;10.30;82.40
4425;DHT22;2225;53.568;13.266;2023-01-15T17:39:51;10.30;82.30
4425;DHT22;2225;53.568;13.266;2023-01-15T17:42:19;10.30;82.40
4425;DHT22;2225;53.568;13.266;2023-01-15T17:44:46;10.30;82.00
4425;DHT22;2225;53.568;13.266;2023-01-15T17:47:13;10.20;82.30
4425;DHT22;2225;53.568;13.266;2023-01-15T17:49:40;10.20;82.30
4425;DHT22;2225;53.568;13.266;2023-01-15T17:52:15;10.20;82.40